createdAt,value
2023-05-05T00:01:19.649Z,11.69
2023-05-05T00:03:48.037Z,11.67
2023-05-05T00:06:16.431Z,11.62
2023-05-05T00:08:45.372Z,11.57
2023-05-05T00:11:14.292Z,11.52
2023-05-05T00:13:42.620Z,11.46
2023-05-05T00:16:11.111Z,11.42
2023-05-05T00:18:39.736Z,11.40
2023-05-05T00:21:08.421Z,11.41
2023-05-05T00:23:37.000Z,11.40
2023-05-05T00:26:05.628Z,11.38
2023-05-05T00:28:34.119Z,11.35
2023-05-05T00:31:02.830Z,11.33
2023-05-05T00:33:31.316Z,11.33
2023-05-05T00:35:59.890Z,11.32
2023-05-05T00:38:34.022Z,11.29
2023-05-05T00:41:02.505Z,11.25
2023-05-05T00:43:30.886Z,11.21
2023-05-05T00:46:04.440Z,11.16
2023-05-05T00:48:33.527Z,11.12
2023-05-05T00:51:02.070Z,11.08
2023-05-05T00:53:31.141Z,11.04
2023-05-05T00:56:03.032Z,11.01
2023-05-05T00:58:31.412Z,10.99
2023-05-05T01:00:59.910Z,10.95
2023-05-05T01:03:29.037Z,10.91
2023-05-05T01:06:07.185Z,10.88
2023-05-05T01:08:45.591Z,10.86
2023-05-05T01:11:27.347Z,10.82
2023-05-05T01:14:13.821Z,10.76
2023-05-05T01:16:56.535Z,10.73
2023-05-05T01:19:40.441Z,10.72
2023-05-05T01:22:15.468Z,10.70
2023-05-05T01:25:22.659Z,10.68
2023-05-05T01:28:12.893Z,10.63
2023-05-05T01:31:18.017Z,10.55
2023-05-05T01:33:50.031Z,10.44
2023-05-05T01:36:26.312Z,10.37
2023-05-05T01:39:00.764Z,10.31
2023-05-05T01:41:41.969Z,10.26
2023-05-05T01:44:13.802Z,10.22
2023-05-05T01:46:42.633Z,10.20
2023-05-05T01:49:13.174Z,10.16
2023-05-05T01:51:42.544Z,10.11
2023-05-05T01:54:11.015Z,10.06
2023-05-05T01:56:40.854Z,10.04
2023-05-05T01:59:13.701Z,9.97
2023-05-05T02:01:44.867Z,9.91
2023-05-05T02:04:14.566Z,9.83
2023-05-05T02:06:44.937Z,9.73
2023-05-05T02:09:15.373Z,9.66
2023-05-05T02:11:44.198Z,9.60
2023-05-05T02:14:14.119Z,9.55
2023-05-05T02:16:44.919Z,9.50
2023-05-05T02:19:15.066Z,9.48
2023-05-05T02:21:43.940Z,9.49
2023-05-05T02:24:12.286Z,9.50
2023-05-05T02:26:44.206Z,9.49
2023-05-05T02:29:17.974Z,9.48
2023-05-05T02:31:50.200Z,9.45
2023-05-05T02:34:29.695Z,9.39
2023-05-05T02:37:01.039Z,9.33
2023-05-05T02:39:39.044Z,9.22
2023-05-05T02:42:09.449Z,8.99
2023-05-05T02:44:42.083Z,8.81
2023-05-05T02:47:10.223Z,8.70
2023-05-05T02:49:38.613Z,8.60
2023-05-05T02:52:18.992Z,8.51
2023-05-05T02:54:47.373Z,8.41
2023-05-05T02:57:19.409Z,8.35
2023-05-05T02:59:57.128Z,8.31
2023-05-05T03:02:35.212Z,8.28
2023-05-05T03:05:10.294Z,8.25
2023-05-05T03:07:45.462Z,8.18
2023-05-05T03:10:18.872Z,8.13
2023-05-05T03:13:03.354Z,8.12
2023-05-05T03:15:46.470Z,8.10
2023-05-05T03:18:17.745Z,8.09
2023-05-05T03:20:47.641Z,8.06
2023-05-05T03:23:18.648Z,8.06
2023-05-05T03:25:47.868Z,8.03
2023-05-05T03:28:17.156Z,7.99
2023-05-05T03:30:45.767Z,7.97
2023-05-05T03:33:14.138Z,7.95
2023-05-05T03:35:42.817Z,7.96
2023-05-05T03:38:12.709Z,7.96
2023-05-05T03:40:44.469Z,7.95
2023-05-05T03:43:13.273Z,7.98
2023-05-05T03:45:41.734Z,7.98
2023-05-05T03:48:10.559Z,8.00
2023-05-05T03:50:41.359Z,7.98
2023-05-05T03:53:18.393Z,7.94
2023-05-05T03:55:53.249Z,7.94
2023-05-05T03:58:30.348Z,7.94
2023-05-05T04:01:01.158Z,7.95
2023-05-05T04:03:29.892Z,7.96
2023-05-05T04:06:06.233Z,7.96
2023-05-05T04:08:34.561Z,7.98
2023-05-05T04:11:03.007Z,8.00
2023-05-05T04:13:31.573Z,8.02
2023-05-05T04:16:00.252Z,8.01
2023-05-05T04:18:29.172Z,8.03
2023-05-05T04:21:01.027Z,8.05
2023-05-05T04:23:30.385Z,8.06
2023-05-05T04:25:58.880Z,8.05
2023-05-05T04:28:27.770Z,8.06
2023-05-05T04:31:02.992Z,8.08
2023-05-05T04:33:34.026Z,8.12
2023-05-05T04:36:02.484Z,8.15
2023-05-05T04:38:31.089Z,8.19
2023-05-05T04:41:00.171Z,8.23
2023-05-05T04:43:28.482Z,8.27
2023-05-05T04:45:57.940Z,8.31
2023-05-05T04:48:27.451Z,8.32
2023-05-05T04:50:56.094Z,8.29
2023-05-05T04:53:27.963Z,8.27
2023-05-05T04:55:56.133Z,8.28
2023-05-05T04:58:29.306Z,8.26
2023-05-05T05:00:57.873Z,8.26
2023-05-05T05:03:26.360Z,8.25
2023-05-05T05:06:06.630Z,8.23
2023-05-05T05:08:36.001Z,8.21
2023-05-05T05:11:04.412Z,8.23
2023-05-05T05:13:32.877Z,8.23
2023-05-05T05:16:02.038Z,8.25
2023-05-05T05:18:33.004Z,8.32
2023-05-05T05:21:02.072Z,8.39
2023-05-05T05:23:30.995Z,8.42
2023-05-05T05:25:59.851Z,8.51
2023-05-05T05:28:28.426Z,8.68
2023-05-05T05:30:56.979Z,8.99
2023-05-05T05:33:26.219Z,9.40
2023-05-05T05:35:54.455Z,9.76
2023-05-05T05:38:22.942Z,9.82
2023-05-05T05:40:51.136Z,9.76
2023-05-05T05:43:20.005Z,9.68
2023-05-05T05:45:59.063Z,9.77
2023-05-05T05:48:29.678Z,10.27
2023-05-05T05:51:02.741Z,10.68
2023-05-05T05:53:31.322Z,11.04
2023-05-05T05:56:01.553Z,11.48
2023-05-05T05:58:32.880Z,11.79
2023-05-05T06:01:05.385Z,11.77
2023-05-05T06:03:49.024Z,11.62
2023-05-05T06:06:17.486Z,11.58
2023-05-05T06:08:51.296Z,11.68
2023-05-05T06:11:37.270Z,11.84
2023-05-05T06:14:22.167Z,12.10
2023-05-05T06:16:52.567Z,12.18
2023-05-05T06:19:30.264Z,12.40
2023-05-05T06:22:01.390Z,12.65
2023-05-05T06:24:32.295Z,12.76
2023-05-05T06:27:03.833Z,12.82
2023-05-05T06:29:32.676Z,12.82
2023-05-05T06:32:01.974Z,12.72
2023-05-05T06:34:30.333Z,12.46
2023-05-05T06:36:58.883Z,12.13
2023-05-05T06:39:27.294Z,11.99
2023-05-05T06:41:55.725Z,12.04
2023-05-05T06:44:24.388Z,12.03
2023-05-05T06:46:54.181Z,11.88
2023-05-05T06:49:24.877Z,11.78
2023-05-05T06:51:56.582Z,11.83
2023-05-05T06:54:25.138Z,12.02
2023-05-05T06:56:54.108Z,12.15
2023-05-05T06:59:26.436Z,12.28
2023-05-05T07:01:54.838Z,12.51
2023-05-05T07:04:23.029Z,12.66
2023-05-05T07:06:51.355Z,12.79
2023-05-05T07:09:20.546Z,12.78
2023-05-05T07:11:50.295Z,12.81
2023-05-05T07:14:18.661Z,13.03
2023-05-05T07:16:57.013Z,13.20
2023-05-05T07:19:25.395Z,13.40
2023-05-05T07:21:53.629Z,13.64
2023-05-05T07:24:23.704Z,13.88
2023-05-05T07:26:52.001Z,13.87
2023-05-05T07:29:20.642Z,13.65
2023-05-05T07:31:49.227Z,13.52
2023-05-05T07:34:18.055Z,13.50
2023-05-05T07:36:46.284Z,13.67
2023-05-05T07:39:15.579Z,13.70
2023-05-05T07:41:44.433Z,13.67
2023-05-05T07:44:13.256Z,13.74
2023-05-05T07:46:42.005Z,13.99
2023-05-05T07:49:13.297Z,14.33
2023-05-05T07:51:42.319Z,14.30
2023-05-05T07:54:11.972Z,14.39
2023-05-05T07:56:40.808Z,14.61
2023-05-05T07:59:10.466Z,14.74
2023-05-05T08:01:40.925Z,14.76
2023-05-05T08:04:12.433Z,14.64
2023-05-05T08:06:41.179Z,14.45
2023-05-05T08:09:11.235Z,14.49
2023-05-05T08:11:39.989Z,14.67
2023-05-05T08:14:08.331Z,14.59
2023-05-05T08:16:37.039Z,14.45
2023-05-05T08:19:14.522Z,14.62
2023-05-05T08:21:56.221Z,14.82
2023-05-05T08:24:25.131Z,14.71
2023-05-05T08:26:53.520Z,14.74
2023-05-05T08:29:21.850Z,14.87
2023-05-05T08:31:50.235Z,15.11
2023-05-05T08:34:33.290Z,15.26
2023-05-05T08:37:01.570Z,15.26
2023-05-05T08:39:30.225Z,15.20
2023-05-05T08:41:58.757Z,15.12
2023-05-05T08:44:29.023Z,15.19
2023-05-05T08:46:59.550Z,15.32
2023-05-05T08:49:34.790Z,15.79
2023-05-05T08:52:06.736Z,15.92
2023-05-05T08:54:38.557Z,16.00
2023-05-05T08:57:10.752Z,15.96
2023-05-05T08:59:39.915Z,15.98
2023-05-05T09:02:10.948Z,15.96
2023-05-05T09:04:42.931Z,16.17
2023-05-05T09:07:11.734Z,16.38
2023-05-05T09:09:40.436Z,16.70
2023-05-05T09:12:11.073Z,16.75
2023-05-05T09:14:43.025Z,16.85
2023-05-05T09:17:24.913Z,16.84
2023-05-05T09:20:07.483Z,17.01
2023-05-05T09:22:38.898Z,17.22
2023-05-05T09:25:18.480Z,17.46
2023-05-05T09:27:49.285Z,17.31
2023-05-05T09:30:24.334Z,17.14
2023-05-05T09:32:54.643Z,17.23
2023-05-05T09:35:24.034Z,17.46
2023-05-05T09:37:52.880Z,17.60
2023-05-05T09:40:23.675Z,17.68
2023-05-05T09:43:01.883Z,17.75
2023-05-05T09:45:32.952Z,17.77
2023-05-05T09:48:03.031Z,17.76
2023-05-05T09:50:44.351Z,17.95
2023-05-05T09:53:13.882Z,18.06
2023-05-05T09:55:52.246Z,17.88
2023-05-05T09:58:23.882Z,17.99
2023-05-05T10:00:53.162Z,18.25
2023-05-05T10:03:21.999Z,18.12
2023-05-05T10:05:50.913Z,17.84
2023-05-05T10:08:31.134Z,17.51
2023-05-05T10:11:03.160Z,17.27
2023-05-05T10:13:37.873Z,17.04
2023-05-05T10:16:09.788Z,17.17
2023-05-05T10:18:46.496Z,17.54
2023-05-05T10:21:20.374Z,17.72
2023-05-05T10:23:52.567Z,17.81
2023-05-05T10:26:23.754Z,17.99
2023-05-05T10:28:56.295Z,18.30
2023-05-05T10:31:36.638Z,18.36
2023-05-05T10:34:10.327Z,18.21
2023-05-05T10:36:39.647Z,17.90
2023-05-05T10:39:10.857Z,17.77
2023-05-05T10:41:39.589Z,18.26
2023-05-05T10:44:10.881Z,18.57
2023-05-05T10:46:39.869Z,18.42
2023-05-05T10:49:23.476Z,18.34
2023-05-05T10:51:57.030Z,18.27
2023-05-05T10:54:38.278Z,18.51
2023-05-05T10:57:11.088Z,18.43
2023-05-05T10:59:40.860Z,18.39
2023-05-05T11:02:29.615Z,18.39
2023-05-05T11:05:10.620Z,18.52
2023-05-05T11:07:39.438Z,18.62
2023-05-05T11:10:10.024Z,18.76
2023-05-05T11:13:03.249Z,18.56
2023-05-05T11:15:37.929Z,18.68
2023-05-05T11:18:08.224Z,18.86
2023-05-05T11:20:43.788Z,18.83
2023-05-05T11:23:13.977Z,18.84
2023-05-05T11:25:45.533Z,18.92
2023-05-05T11:28:19.067Z,18.98
2023-05-05T11:30:57.283Z,18.99
2023-05-05T11:33:31.752Z,18.70
2023-05-05T11:36:07.387Z,18.74
2023-05-05T11:38:42.043Z,18.91
2023-05-05T11:41:10.228Z,18.90
2023-05-05T11:43:39.290Z,18.97
2023-05-05T11:46:16.346Z,19.07
2023-05-05T11:48:55.799Z,18.86
2023-05-05T11:51:25.852Z,19.15
2023-05-05T11:53:55.718Z,19.35
2023-05-05T11:57:22.365Z,19.50
2023-05-05T12:00:28.431Z,19.85
2023-05-05T12:03:05.379Z,19.55
2023-05-05T12:05:36.280Z,19.29
2023-05-05T12:08:05.783Z,19.38
2023-05-05T12:10:37.005Z,19.43
2023-05-05T12:13:18.204Z,19.31
2023-05-05T12:15:47.219Z,19.31
2023-05-05T12:18:20.009Z,19.40
2023-05-05T12:20:48.992Z,19.40
2023-05-05T12:23:17.367Z,19.25
2023-05-05T12:25:46.683Z,19.12
2023-05-05T12:28:15.633Z,19.08
2023-05-05T12:31:01.005Z,19.01
2023-05-05T12:33:29.541Z,18.85
2023-05-05T12:35:58.446Z,18.89
2023-05-05T12:38:26.900Z,18.82
2023-05-05T12:40:56.288Z,18.95
2023-05-05T12:43:28.234Z,19.07
2023-05-05T12:46:01.460Z,19.11
2023-05-05T12:48:31.078Z,18.93
2023-05-05T12:51:20.644Z,18.76
2023-05-05T12:54:05.312Z,18.54
2023-05-05T12:56:39.265Z,18.79
2023-05-05T12:59:12.563Z,18.94
2023-05-05T13:01:54.711Z,19.19
2023-05-05T13:04:30.201Z,19.54
2023-05-05T13:07:13.789Z,19.31
2023-05-05T13:09:42.131Z,19.27
2023-05-05T13:12:13.383Z,19.19
2023-05-05T13:14:42.043Z,19.03
2023-05-05T13:17:11.677Z,19.04
2023-05-05T13:19:46.512Z,19.02
2023-05-05T13:22:15.354Z,19.03
2023-05-05T13:24:51.659Z,19.14
2023-05-05T13:27:21.558Z,19.14
2023-05-05T13:29:50.310Z,18.94
2023-05-05T13:32:18.955Z,18.88
2023-05-05T13:34:47.193Z,18.95
2023-05-05T13:37:15.719Z,19.00
2023-05-05T13:39:44.131Z,19.04
2023-05-05T13:42:12.304Z,19.22
2023-05-05T13:44:40.951Z,19.23
2023-05-05T13:47:09.290Z,19.31
2023-05-05T13:49:37.665Z,19.28
2023-05-05T13:52:06.563Z,19.13
2023-05-05T13:54:35.024Z,19.03
2023-05-05T13:57:03.694Z,19.14
2023-05-05T13:59:32.065Z,19.30
2023-05-05T14:02:01.476Z,19.21
2023-05-05T14:04:30.039Z,19.08
2023-05-05T14:06:58.713Z,18.69
2023-05-05T14:09:27.100Z,18.38
2023-05-05T14:11:55.332Z,18.19
2023-05-05T14:14:26.462Z,18.20
2023-05-05T14:16:54.752Z,18.19
2023-05-05T14:19:22.956Z,18.13
2023-05-05T14:21:54.157Z,18.05
2023-05-05T14:24:22.622Z,18.16
2023-05-05T14:26:51.407Z,18.34
2023-05-05T14:29:22.947Z,18.53
2023-05-05T14:31:54.360Z,18.67
2023-05-05T14:34:22.796Z,18.58
2023-05-05T14:36:51.346Z,18.60
2023-05-05T14:39:19.998Z,18.70
2023-05-05T14:41:48.222Z,18.73
2023-05-05T14:44:16.797Z,18.69
2023-05-05T14:46:55.318Z,18.63
2023-05-05T14:49:23.782Z,18.44
2023-05-05T14:51:52.695Z,18.33
2023-05-05T14:54:27.801Z,18.24
2023-05-05T14:56:57.100Z,18.19
2023-05-05T14:59:26.507Z,18.12
2023-05-05T15:01:58.059Z,18.13
2023-05-05T15:04:26.590Z,18.18
2023-05-05T15:06:54.974Z,18.11
2023-05-05T15:09:23.409Z,17.99
2023-05-05T15:11:55.058Z,17.90
2023-05-05T15:14:23.209Z,17.84
2023-05-05T15:16:51.931Z,17.77
2023-05-05T15:19:20.311Z,17.81
2023-05-05T15:21:54.214Z,17.90
2023-05-05T15:24:22.675Z,17.91
2023-05-05T15:26:51.314Z,17.90
2023-05-05T15:29:20.566Z,17.94
2023-05-05T15:31:49.303Z,17.92
2023-05-05T15:34:17.765Z,17.83
2023-05-05T15:36:47.011Z,17.76
2023-05-05T15:39:15.457Z,17.71
2023-05-05T15:41:47.040Z,17.67
2023-05-05T15:44:15.412Z,17.67
2023-05-05T15:46:50.471Z,17.67
2023-05-05T15:49:19.441Z,17.65
2023-05-05T15:51:48.684Z,17.67
2023-05-05T15:54:17.102Z,17.70
2023-05-05T15:56:45.700Z,17.61
2023-05-05T15:59:14.092Z,17.47
2023-05-05T16:01:42.721Z,17.45
2023-05-05T16:04:11.576Z,17.37
2023-05-05T16:06:40.262Z,17.27
2023-05-05T16:09:10.260Z,17.23
2023-05-05T16:11:41.583Z,17.18
2023-05-05T16:14:10.810Z,17.12
2023-05-05T16:16:39.267Z,17.06
2023-05-05T16:19:07.446Z,17.00
2023-05-05T16:21:35.788Z,16.95
2023-05-05T16:24:04.428Z,16.88
2023-05-05T16:26:36.269Z,16.82
2023-05-05T16:29:05.305Z,16.77
2023-05-05T16:31:40.039Z,16.74
2023-05-05T16:34:08.877Z,16.71
2023-05-05T16:36:37.500Z,16.72
2023-05-05T16:39:08.172Z,16.73
2023-05-05T16:41:39.417Z,16.71
2023-05-05T16:44:08.304Z,16.68
2023-05-05T16:46:40.314Z,16.65
2023-05-05T16:49:08.843Z,16.56
2023-05-05T16:51:37.185Z,16.49
2023-05-05T16:54:06.132Z,16.41
2023-05-05T16:56:43.457Z,16.34
2023-05-05T16:59:13.228Z,16.27
2023-05-05T17:01:43.906Z,16.24
2023-05-05T17:04:12.393Z,16.18
2023-05-05T17:06:40.965Z,16.06
2023-05-05T17:09:09.390Z,15.93
2023-05-05T17:11:40.121Z,15.82
2023-05-05T17:14:10.834Z,15.69
2023-05-05T17:16:39.378Z,15.62
2023-05-05T17:19:07.885Z,15.54
2023-05-05T17:21:49.691Z,15.45
2023-05-05T17:24:18.049Z,15.29
2023-05-05T17:26:47.160Z,15.19
2023-05-05T17:29:20.180Z,15.03
2023-05-05T17:31:48.482Z,14.92
2023-05-05T17:34:16.796Z,14.82
2023-05-05T17:36:45.208Z,14.74
2023-05-05T17:39:13.967Z,14.67
2023-05-05T17:41:42.554Z,14.60
2023-05-05T17:44:10.876Z,14.52
2023-05-05T17:46:39.509Z,14.45
2023-05-05T17:49:07.777Z,14.36
2023-05-05T17:51:36.603Z,14.26
2023-05-05T17:54:05.580Z,14.18
2023-05-05T17:56:35.073Z,14.11
2023-05-05T17:59:03.357Z,14.04
2023-05-05T18:01:31.757Z,14.00
2023-05-05T18:04:00.338Z,13.96
2023-05-05T18:06:29.616Z,13.84
2023-05-05T18:08:58.378Z,13.74
2023-05-05T18:11:29.094Z,13.67
2023-05-05T18:14:00.490Z,13.60
2023-05-05T18:16:35.966Z,13.54
2023-05-05T18:19:04.641Z,13.45
2023-05-05T18:21:33.394Z,13.39
2023-05-05T18:24:15.670Z,13.35
2023-05-05T18:26:50.459Z,13.30
2023-05-05T18:29:22.764Z,13.23
2023-05-05T18:31:59.244Z,13.15
2023-05-05T18:34:29.700Z,13.05
2023-05-05T18:37:00.861Z,12.99
2023-05-05T18:39:29.864Z,12.92
2023-05-05T18:42:08.578Z,12.90
2023-05-05T18:44:38.073Z,12.85
2023-05-05T18:47:07.156Z,12.79
2023-05-05T18:49:35.711Z,12.73
2023-05-05T18:52:04.855Z,12.68
2023-05-05T18:54:38.732Z,12.65
2023-05-05T18:57:07.204Z,12.59
2023-05-05T18:59:35.679Z,12.57
2023-05-05T19:02:08.075Z,12.54
2023-05-05T19:04:38.267Z,12.48
2023-05-05T19:07:07.356Z,12.43
2023-05-05T19:09:36.273Z,12.37
2023-05-05T19:12:07.648Z,12.33
2023-05-05T19:14:37.219Z,12.27
2023-05-05T19:17:05.597Z,12.23
2023-05-05T19:19:41.490Z,12.19
2023-05-05T19:22:10.506Z,12.14
2023-05-05T19:24:38.781Z,12.12
2023-05-05T19:27:08.453Z,12.09
2023-05-05T19:29:37.061Z,12.01
2023-05-05T19:32:09.462Z,11.97
2023-05-05T19:34:40.984Z,11.94
2023-05-05T19:37:09.708Z,11.91
2023-05-05T19:39:39.132Z,11.89
2023-05-05T19:42:08.386Z,11.84
2023-05-05T19:44:36.615Z,11.80
2023-05-05T19:47:09.001Z,11.77
2023-05-05T19:49:48.141Z,11.73
2023-05-05T19:52:16.901Z,11.68
2023-05-05T19:54:45.270Z,11.64
2023-05-05T19:57:15.106Z,11.58
2023-05-05T19:59:43.796Z,11.55
2023-05-05T20:02:12.749Z,11.54
2023-05-05T20:04:41.588Z,11.50
2023-05-05T20:07:09.932Z,11.46
2023-05-05T20:09:38.396Z,11.41
2023-05-05T20:12:07.022Z,11.36
2023-05-05T20:14:35.815Z,11.35
2023-05-05T20:17:04.257Z,11.33
2023-05-05T20:19:32.558Z,11.28
2023-05-05T20:22:00.866Z,11.24
2023-05-05T20:24:30.032Z,11.20
2023-05-05T20:26:58.292Z,11.18
2023-05-05T20:29:27.281Z,11.17
2023-05-05T20:31:55.644Z,11.14
2023-05-05T20:34:25.353Z,11.08
2023-05-05T20:36:54.507Z,11.06
2023-05-05T20:39:22.924Z,11.04
2023-05-05T20:41:51.157Z,11.02
2023-05-05T20:44:22.616Z,10.97
2023-05-05T20:46:51.504Z,10.93
2023-05-05T20:49:19.721Z,10.91
2023-05-05T20:51:48.104Z,10.87
2023-05-05T20:54:18.322Z,10.86
2023-05-05T20:56:46.872Z,10.83
2023-05-05T20:59:15.093Z,10.80
2023-05-05T21:01:44.255Z,10.80
2023-05-05T21:04:13.025Z,10.77
2023-05-05T21:06:41.690Z,10.75
2023-05-05T21:09:10.350Z,10.72
2023-05-05T21:11:39.166Z,10.74
2023-05-05T21:14:07.709Z,10.74
2023-05-05T21:16:35.955Z,10.72
2023-05-05T21:19:06.743Z,10.67
2023-05-05T21:21:34.911Z,10.65
2023-05-05T21:24:04.899Z,10.60
2023-05-05T21:26:35.437Z,10.58
2023-05-05T21:29:03.930Z,10.56
2023-05-05T21:31:32.412Z,10.54
2023-05-05T21:34:00.729Z,10.50
2023-05-05T21:36:30.222Z,10.47
2023-05-05T21:39:01.259Z,10.45
2023-05-05T21:41:30.146Z,10.44
2023-05-05T21:43:58.287Z,10.43
2023-05-05T21:46:26.795Z,10.41
2023-05-05T21:48:55.242Z,10.38
2023-05-05T21:51:24.070Z,10.32
2023-05-05T21:53:52.313Z,10.31
2023-05-05T21:56:20.572Z,10.31
2023-05-05T21:58:49.064Z,10.28
2023-05-05T22:01:17.240Z,10.27
2023-05-05T22:03:47.731Z,10.24
2023-05-05T22:06:17.525Z,10.23
2023-05-05T22:08:50.077Z,10.22
2023-05-05T22:11:19.415Z,10.18
2023-05-05T22:13:47.710Z,10.13
2023-05-05T22:16:19.439Z,10.12
2023-05-05T22:18:48.188Z,10.09
2023-05-05T22:21:21.526Z,10.05
2023-05-05T22:23:49.771Z,10.01
2023-05-05T22:26:20.880Z,9.99
2023-05-05T22:28:49.128Z,9.98
2023-05-05T22:31:19.002Z,9.98
2023-05-05T22:33:48.450Z,9.94
2023-05-05T22:36:16.757Z,9.91
2023-05-05T22:38:45.021Z,9.86
2023-05-05T22:41:13.276Z,9.86
2023-05-05T22:43:41.693Z,9.83
2023-05-05T22:46:10.319Z,9.83
2023-05-05T22:48:38.810Z,9.81
2023-05-05T22:51:07.790Z,9.80
2023-05-05T22:53:36.298Z,9.78
2023-05-05T22:56:05.234Z,9.75
2023-05-05T22:58:34.262Z,9.72
2023-05-05T23:01:02.797Z,9.72
2023-05-05T23:03:31.255Z,9.70
2023-05-05T23:05:59.455Z,9.72
2023-05-05T23:08:27.898Z,9.70
2023-05-05T23:10:56.406Z,9.67
2023-05-05T23:13:24.681Z,9.62
2023-05-05T23:15:55.206Z,9.57
2023-05-05T23:18:24.649Z,9.58
2023-05-05T23:20:52.934Z,9.55
2023-05-05T23:23:21.195Z,9.53
2023-05-05T23:25:49.800Z,9.53
2023-05-05T23:28:19.317Z,9.52
2023-05-05T23:30:47.840Z,9.50
2023-05-05T23:33:16.121Z,9.48
2023-05-05T23:35:45.775Z,9.46
2023-05-05T23:38:13.958Z,9.43
2023-05-05T23:40:42.205Z,9.38
2023-05-05T23:43:13.103Z,9.38
2023-05-05T23:45:50.568Z,9.34
2023-05-05T23:48:18.914Z,9.33
2023-05-05T23:50:47.220Z,9.31
2023-05-05T23:53:16.273Z,9.30
2023-05-05T23:55:44.799Z,9.30
2023-05-05T23:58:12.947Z,9.28
